sensor_id;sensor_type;location;lat;lon;timestamp;pressure;altitude;pressure_sealevel;temperature;humidity
84108;BME280;74203;50.730;1.626;2024-01-16T00:00:01;100203.44;;;0.12;60.31
84108;BME280;74203;50.730;1.626;2024-01-16T00:02:10;100211.41;;;0.12;60.55
84108;BME280;74203;50.730;1.626;2024-01-16T00:04:18;100210.63;;;0.02;60.75
84108;BME280;74203;50.730;1.626;2024-01-16T00:06:27;100212.28;;;0.03;60.97
84108;BME280;74203;50.730;1.626;2024-01-16T00:08:36;100211.31;;;0.04;60.85
84108;BME280;74203;50.730;1.626;2024-01-16T00:10:45;100211.34;;;-0.06;60.90
84108;BME280;74203;50.730;1.626;2024-01-16T00:12:53;100214.38;;;-0.01;60.76
84108;BME280;74203;50.730;1.626;2024-01-16T00:15:02;100212.56;;;-0.01;61.39
84108;BME280;74203;50.730;1.626;2024-01-16T00:17:11;100210.22;;;-0.04;61.72
84108;BME280;74203;50.730;1.626;2024-01-16T00:19:20;100205.47;;;-0.10;61.96
84108;BME280;74203;50.730;1.626;2024-01-16T00:21:28;100197.94;;;-0.14;61.58
84108;BME280;74203;50.730;1.626;2024-01-16T00:23:37;100196.94;;;-0.04;61.35
84108;BME280;74203;50.730;1.626;2024-01-16T00:25:45;100196.94;;;-0.04;61.24
84108;BME280;74203;50.730;1.626;2024-01-16T00:27:54;100197.09;;;-0.05;61.25
84108;BME280;74203;50.730;1.626;2024-01-16T00:30:03;100196.63;;;-0.01;61.56
84108;BME280;74203;50.730;1.626;2024-01-16T00:32:12;100202.81;;;0.00;61.17
84108;BME280;74203;50.730;1.626;2024-01-16T00:34:20;100194.28;;;-0.04;62.38
84108;BME280;74203;50.730;1.626;2024-01-16T00:36:29;100196.53;;;-0.09;61.44
84108;BME280;74203;50.730;1.626;2024-01-16T00:38:38;100198.50;;;-0.11;61.64
84108;BME280;74203;50.730;1.626;2024-01-16T00:40:47;100203.91;;;-0.03;61.23
84108;BME280;74203;50.730;1.626;2024-01-16T00:42:56;100188.69;;;-0.01;61.24
84108;BME280;74203;50.730;1.626;2024-01-16T00:45:05;100190.78;;;-0.04;61.31
84108;BME280;74203;50.730;1.626;2024-01-16T00:47:14;100188.72;;;-0.10;61.07
84108;BME280;74203;50.730;1.626;2024-01-16T00:49:23;100194.44;;;-0.05;61.06
84108;BME280;74203;50.730;1.626;2024-01-16T00:51:31;100193.16;;;-0.01;61.45
84108;BME280;74203;50.730;1.626;2024-01-16T00:53:45;100185.06;;;0.01;61.12
84108;BME280;74203;50.730;1.626;2024-01-16T00:55:54;100183.00;;;-0.06;61.93
84108;BME280;74203;50.730;1.626;2024-01-16T00:58:03;100195.72;;;-0.19;62.68
84108;BME280;74203;50.730;1.626;2024-01-16T01:00:13;100196.00;;;-0.22;63.33
84108;BME280;74203;50.730;1.626;2024-01-16T01:02:22;100190.88;;;-0.33;64.69
84108;BME280;74203;50.730;1.626;2024-01-16T01:04:32;100183.47;;;-0.39;65.16
84108;BME280;74203;50.730;1.626;2024-01-16T01:06:41;100183.47;;;-0.39;65.00
84108;BME280;74203;50.730;1.626;2024-01-16T01:08:49;100192.41;;;-0.40;64.76
84108;BME280;74203;50.730;1.626;2024-01-16T01:10:58;100187.09;;;-0.50;65.33
84108;BME280;74203;50.730;1.626;2024-01-16T01:13:07;100186.13;;;-0.49;66.15
84108;BME280;74203;50.730;1.626;2024-01-16T01:15:16;100177.06;;;-0.46;65.38
84108;BME280;74203;50.730;1.626;2024-01-16T01:17:25;100174.25;;;-0.55;65.92
84108;BME280;74203;50.730;1.626;2024-01-16T01:19:33;100177.91;;;-0.56;65.84
84108;BME280;74203;50.730;1.626;2024-01-16T01:21:42;100179.31;;;-0.51;65.58
84108;BME280;74203;50.730;1.626;2024-01-16T01:23:51;100182.81;;;-0.61;66.30
84108;BME280;74203;50.730;1.626;2024-01-16T01:25:59;100178.75;;;-0.65;66.76
84108;BME280;74203;50.730;1.626;2024-01-16T01:28:09;100184.91;;;-0.74;67.08
84108;BME280;74203;50.730;1.626;2024-01-16T01:30:17;100183.78;;;-0.81;67.55
84108;BME280;74203;50.730;1.626;2024-01-16T01:32:26;100179.87;;;-0.77;66.51
84108;BME280;74203;50.730;1.626;2024-01-16T01:34:35;100180.16;;;-0.61;65.30
84108;BME280;74203;50.730;1.626;2024-01-16T01:36:43;100180.44;;;-0.54;64.75
84108;BME280;74203;50.730;1.626;2024-01-16T01:38:52;100181.81;;;-0.40;63.79
84108;BME280;74203;50.730;1.626;2024-01-16T01:41:00;100177.59;;;-0.33;63.19
84108;BME280;74203;50.730;1.626;2024-01-16T01:43:23;100174.66;;;-0.30;63.25
84108;BME280;74203;50.730;1.626;2024-01-16T01:45:32;100167.78;;;-0.23;62.98
84108;BME280;74203;50.730;1.626;2024-01-16T01:47:41;100178.81;;;-0.18;62.11
84108;BME280;74203;50.730;1.626;2024-01-16T01:49:51;100188.56;;;-0.09;61.95
84108;BME280;74203;50.730;1.626;2024-01-16T01:52:00;100183.44;;;-0.20;63.68
84108;BME280;74203;50.730;1.626;2024-01-16T01:54:09;100179.53;;;-0.25;64.39
84108;BME280;74203;50.730;1.626;2024-01-16T01:56:20;100184.28;;;-0.29;65.11
84108;BME280;74203;50.730;1.626;2024-01-16T01:58:30;100186.53;;;-0.34;65.54
84108;BME280;74203;50.730;1.626;2024-01-16T02:00:38;100180.41;;;-0.44;65.50
84108;BME280;74203;50.730;1.626;2024-01-16T02:02:48;100181.09;;;-0.42;65.92
84108;BME280;74203;50.730;1.626;2024-01-16T02:04:58;100185.44;;;-0.51;66.84
84108;BME280;74203;50.730;1.626;2024-01-16T02:07:07;100183.50;;;-0.59;66.81
84108;BME280;74203;50.730;1.626;2024-01-16T02:09:16;100188.12;;;-0.61;67.10
84108;BME280;74203;50.730;1.626;2024-01-16T02:11:24;100175.97;;;-0.63;67.22
84108;BME280;74203;50.730;1.626;2024-01-16T02:13:33;100188.22;;;-0.62;67.56
84108;BME280;74203;50.730;1.626;2024-01-16T02:15:42;100180.16;;;-0.61;67.40
84108;BME280;74203;50.730;1.626;2024-01-16T02:17:51;100171.50;;;-0.63;67.17
84108;BME280;74203;50.730;1.626;2024-01-16T02:19:59;100163.13;;;-0.58;66.07
84108;BME280;74203;50.730;1.626;2024-01-16T02:22:14;100167.03;;;-0.52;66.33
84108;BME280;74203;50.730;1.626;2024-01-16T02:24:24;100164.78;;;-0.57;66.95
84108;BME280;74203;50.730;1.626;2024-01-16T02:26:34;100164.94;;;-0.59;67.34
84108;BME280;74203;50.730;1.626;2024-01-16T02:28:43;100161.16;;;-0.56;67.30
84108;BME280;74203;50.730;1.626;2024-01-16T02:30:51;100161.88;;;-0.54;67.68
84108;BME280;74203;50.730;1.626;2024-01-16T02:33:00;100158.34;;;-0.55;67.43
84108;BME280;74203;50.730;1.626;2024-01-16T02:35:10;100156.97;;;-0.59;67.72
84108;BME280;74203;50.730;1.626;2024-01-16T02:37:18;100150.81;;;-0.49;67.22
84108;BME280;74203;50.730;1.626;2024-01-16T02:39:27;100148.72;;;-0.46;67.32
84108;BME280;74203;50.730;1.626;2024-01-16T02:41:36;100151.91;;;-0.42;66.02
84108;BME280;74203;50.730;1.626;2024-01-16T02:43:45;100149.00;;;-0.39;67.20
84108;BME280;74203;50.730;1.626;2024-01-16T02:45:53;100143.81;;;-0.41;66.73
84108;BME280;74203;50.730;1.626;2024-01-16T02:48:02;100138.09;;;-0.36;66.89
84108;BME280;74203;50.730;1.626;2024-01-16T02:50:12;100136.84;;;-0.32;67.14
84108;BME280;74203;50.730;1.626;2024-01-16T02:52:20;100137.94;;;-0.35;67.29
84108;BME280;74203;50.730;1.626;2024-01-16T02:54:29;100134.88;;;-0.30;66.79
84108;BME280;74203;50.730;1.626;2024-01-16T02:56:37;100136.53;;;-0.29;67.25
84108;BME280;74203;50.730;1.626;2024-01-16T02:58:46;100127.59;;;-0.28;67.44
84108;BME280;74203;50.730;1.626;2024-01-16T03:00:55;100145.47;;;-0.30;67.36
84108;BME280;74203;50.730;1.626;2024-01-16T03:03:04;100139.75;;;-0.35;67.53
84108;BME280;74203;50.730;1.626;2024-01-16T03:05:13;100127.06;;;-0.41;68.20
84108;BME280;74203;50.730;1.626;2024-01-16T03:07:22;100134.75;;;-0.38;67.76
84108;BME280;74203;50.730;1.626;2024-01-16T03:09:31;100129.97;;;-0.35;68.06
84108;BME280;74203;50.730;1.626;2024-01-16T03:11:39;100122.84;;;-0.34;67.99
84108;BME280;74203;50.730;1.626;2024-01-16T03:13:48;100117.91;;;-0.47;67.59
84108;BME280;74203;50.730;1.626;2024-01-16T03:15:57;100120.09;;;-0.42;67.18
84108;BME280;74203;50.730;1.626;2024-01-16T03:18:06;100118.16;;;-0.50;67.97
84108;BME280;74203;50.730;1.626;2024-01-16T03:20:16;100115.94;;;-0.55;68.43
84108;BME280;74203;50.730;1.626;2024-01-16T03:22:24;100106.47;;;-0.57;68.67
84108;BME280;74203;50.730;1.626;2024-01-16T03:24:33;100102.28;;;-0.60;69.04
84108;BME280;74203;50.730;1.626;2024-01-16T03:26:41;100098.25;;;-0.64;68.73
84108;BME280;74203;50.730;1.626;2024-01-16T03:28:50;100105.50;;;-0.66;68.84
84108;BME280;74203;50.730;1.626;2024-01-16T03:30:59;100103.12;;;-0.69;68.44
84108;BME280;74203;50.730;1.626;2024-01-16T03:33:08;100101.03;;;-0.75;68.45
84108;BME280;74203;50.730;1.626;2024-01-16T03:35:16;100107.88;;;-0.82;68.81
84108;BME280;74203;50.730;1.626;2024-01-16T03:37:25;100102.03;;;-0.76;68.88
84108;BME280;74203;50.730;1.626;2024-01-16T03:39:33;100103.44;;;-0.72;68.89
84108;BME280;74203;50.730;1.626;2024-01-16T03:41:42;100105.09;;;-0.71;68.87
84108;BME280;74203;50.730;1.626;2024-01-16T03:43:51;100097.81;;;-0.69;68.83
84108;BME280;74203;50.730;1.626;2024-01-16T03:45:59;100101.75;;;-0.73;69.03
84108;BME280;74203;50.730;1.626;2024-01-16T03:48:09;100094.63;;;-0.72;69.11
84108;BME280;74203;50.730;1.626;2024-01-16T03:50:17;100101.03;;;-0.75;69.01
84108;BME280;74203;50.730;1.626;2024-01-16T03:52:26;100093.38;;;-0.78;68.88
84108;BME280;74203;50.730;1.626;2024-01-16T03:54:35;100088.66;;;-0.84;69.63
84108;BME280;74203;50.730;1.626;2024-01-16T03:56:43;100083.66;;;-0.87;69.62
84108;BME280;74203;50.730;1.626;2024-01-16T03:58:52;100092.53;;;-0.88;69.66
84108;BME280;74203;50.730;1.626;2024-01-16T04:01:01;100094.25;;;-0.87;69.33
84108;BME280;74203;50.730;1.626;2024-01-16T04:03:10;100088.94;;;-0.87;69.70
84108;BME280;74203;50.730;1.626;2024-01-16T04:05:18;100085.59;;;-0.89;69.92
84108;BME280;74203;50.730;1.626;2024-01-16T04:07:28;100086.97;;;-0.85;69.81
84108;BME280;74203;50.730;1.626;2024-01-16T04:09:36;100088.94;;;-0.87;69.37
84108;BME280;74203;50.730;1.626;2024-01-16T04:11:45;100085.59;;;-0.89;69.59
84108;BME280;74203;50.730;1.626;2024-01-16T04:13:54;100090.75;;;-0.88;69.00
84108;BME280;74203;50.730;1.626;2024-01-16T04:16:02;100083.38;;;-0.94;69.78
84108;BME280;74203;50.730;1.626;2024-01-16T04:18:12;100086.72;;;-0.92;69.49
84108;BME280;74203;50.730;1.626;2024-01-16T04:20:21;100063.03;;;-1.13;69.39
84108;BME280;74203;50.730;1.626;2024-01-16T04:22:29;100085.88;;;-0.92;69.41
84108;BME280;74203;50.730;1.626;2024-01-16T04:24:38;100083.63;;;-0.97;69.75
84108;BME280;74203;50.730;1.626;2024-01-16T04:26:47;100091.44;;;-0.95;69.50
84108;BME280;74203;50.730;1.626;2024-01-16T04:28:55;100100.38;;;-0.96;69.60
84108;BME280;74203;50.730;1.626;2024-01-16T04:31:04;100087.84;;;-0.94;69.16
84108;BME280;74203;50.730;1.626;2024-01-16T04:33:13;100094.25;;;-0.87;68.74
84108;BME280;74203;50.730;1.626;2024-01-16T04:35:21;100086.28;;;-0.87;68.77
84108;BME280;74203;50.730;1.626;2024-01-16T04:37:30;100081.37;;;-0.82;68.65
84108;BME280;74203;50.730;1.626;2024-01-16T04:39:38;100079.44;;;-0.80;68.54
84108;BME280;74203;50.730;1.626;2024-01-16T04:41:47;100086.41;;;-0.79;68.49
84108;BME280;74203;50.730;1.626;2024-01-16T04:43:56;100089.75;;;-0.77;69.06
84108;BME280;74203;50.730;1.626;2024-01-16T04:46:04;100083.06;;;-0.71;68.66
84108;BME280;74203;50.730;1.626;2024-01-16T04:48:13;100083.06;;;-0.71;68.75
84108;BME280;74203;50.730;1.626;2024-01-16T04:50:22;100071.31;;;-0.69;68.52
84108;BME280;74203;50.730;1.626;2024-01-16T04:52:30;100071.31;;;-0.69;68.44
84108;BME280;74203;50.730;1.626;2024-01-16T04:54:39;100069.38;;;-0.67;68.75
84108;BME280;74203;50.730;1.626;2024-01-16T04:56:47;100070.75;;;-0.63;68.55
84108;BME280;74203;50.730;1.626;2024-01-16T04:58:56;100061.53;;;-0.59;68.34
84108;BME280;74203;50.730;1.626;2024-01-16T05:01:05;100065.19;;;-0.60;68.44
84108;BME280;74203;50.730;1.626;2024-01-16T05:03:13;100058.47;;;-0.64;68.74
84108;BME280;74203;50.730;1.626;2024-01-16T05:05:22;100058.88;;;-0.59;68.45
84108;BME280;74203;50.730;1.626;2024-01-16T05:07:30;100062.09;;;-0.65;68.62
84108;BME280;74203;50.730;1.626;2024-01-16T05:09:39;100052.75;;;-0.59;68.64
84108;BME280;74203;50.730;1.626;2024-01-16T05:11:47;100053.19;;;-0.64;68.60
84108;BME280;74203;50.730;1.626;2024-01-16T05:13:56;100054.84;;;-0.63;69.10
84108;BME280;74203;50.730;1.626;2024-01-16T05:16:05;100048.56;;;-0.62;69.46
84108;BME280;74203;50.730;1.626;2024-01-16T05:18:14;100049.28;;;-0.60;68.99
84108;BME280;74203;50.730;1.626;2024-01-16T05:20:22;100037.25;;;-0.54;68.98
84108;BME280;74203;50.730;1.626;2024-01-16T05:22:31;100038.09;;;-0.53;68.96
84108;BME280;74203;50.730;1.626;2024-01-16T05:24:39;100039.34;;;-0.58;69.38
84108;BME280;74203;50.730;1.626;2024-01-16T05:26:48;100032.91;;;-0.55;68.87
84108;BME280;74203;50.730;1.626;2024-01-16T05:28:57;100040.19;;;-0.57;69.25
84108;BME280;74203;50.730;1.626;2024-01-16T05:31:06;100035.03;;;-0.59;69.26
84108;BME280;74203;50.730;1.626;2024-01-16T05:33:14;100032.91;;;-0.55;69.38
84108;BME280;74203;50.730;1.626;2024-01-16T05:35:23;100026.41;;;-0.61;69.67
84108;BME280;74203;50.730;1.626;2024-01-16T05:37:31;100025.28;;;-0.68;70.07
84108;BME280;74203;50.730;1.626;2024-01-16T05:39:40;100029.47;;;-0.75;70.01
84108;BME280;74203;50.730;1.626;2024-01-16T05:41:49;100029.09;;;-0.80;70.23
84108;BME280;74203;50.730;1.626;2024-01-16T05:43:58;100025.56;;;-0.71;70.00
84108;BME280;74203;50.730;1.626;2024-01-16T05:46:07;100026.81;;;-0.75;70.10
84108;BME280;74203;50.730;1.626;2024-01-16T05:48:15;100026.72;;;-0.83;70.57
84108;BME280;74203;50.730;1.626;2024-01-16T05:50:24;100018.62;;;-0.82;70.24
84108;BME280;74203;50.730;1.626;2024-01-16T05:52:33;100022.12;;;-0.81;70.05
84108;BME280;74203;50.730;1.626;2024-01-16T05:54:41;100019.75;;;-0.84;70.23
84108;BME280;74203;50.730;1.626;2024-01-16T05:56:50;100017.78;;;-0.82;70.29
84108;BME280;74203;50.730;1.626;2024-01-16T05:58:58;100013.91;;;-0.88;70.70
84108;BME280;74203;50.730;1.626;2024-01-16T06:01:07;100011.25;;;-0.88;70.32
84108;BME280;74203;50.730;1.626;2024-01-16T06:03:16;100016.69;;;-0.89;70.71
84108;BME280;74203;50.730;1.626;2024-01-16T06:05:24;100011.94;;;-0.86;70.66
84108;BME280;74203;50.730;1.626;2024-01-16T06:07:33;100011.22;;;-0.78;70.23
84108;BME280;74203;50.730;1.626;2024-01-16T06:09:44;100011.62;;;-0.73;70.35
84108;BME280;74203;50.730;1.626;2024-01-16T06:11:52;100014.44;;;-0.74;70.42
84108;BME280;74203;50.730;1.626;2024-01-16T06:14:01;100010.09;;;-0.75;70.26
84108;BME280;74203;50.730;1.626;2024-01-16T06:16:11;100016.37;;;-0.76;70.50
84108;BME280;74203;50.730;1.626;2024-01-16T06:18:20;100017.22;;;-0.76;70.76
84108;BME280;74203;50.730;1.626;2024-01-16T06:20:28;100017.78;;;-0.72;70.19
84108;BME280;74203;50.730;1.626;2024-01-16T06:22:37;100018.75;;;-0.73;70.69
84108;BME280;74203;50.730;1.626;2024-01-16T06:24:46;100016.63;;;-0.70;70.58
84108;BME280;74203;50.730;1.626;2024-01-16T06:26:54;100021.16;;;-0.80;71.07
84108;BME280;74203;50.730;1.626;2024-01-16T06:29:03;100015.84;;;-0.80;71.12
84108;BME280;74203;50.730;1.626;2024-01-16T06:31:12;100013.63;;;-0.85;70.88
84108;BME280;74203;50.730;1.626;2024-01-16T06:33:20;100015.28;;;-0.84;70.99
84108;BME280;74203;50.730;1.626;2024-01-16T06:35:29;100011.78;;;-0.84;71.11
84108;BME280;74203;50.730;1.626;2024-01-16T06:37:39;100011.38;;;-0.89;71.06
84108;BME280;74203;50.730;1.626;2024-01-16T06:39:48;100009.56;;;-0.89;71.17
84108;BME280;74203;50.730;1.626;2024-01-16T06:41:56;100013.75;;;-0.96;71.36
84108;BME280;74203;50.730;1.626;2024-01-16T06:44:05;100010.16;;;-0.95;71.45
84108;BME280;74203;50.730;1.626;2024-01-16T06:46:14;100003.06;;;-0.94;71.26
84108;BME280;74203;50.730;1.626;2024-01-16T06:48:22;100012.81;;;-0.95;70.96
84108;BME280;74203;50.730;1.626;2024-01-16T06:50:31;100006.91;;;-0.89;70.80
84108;BME280;74203;50.730;1.626;2024-01-16T06:52:40;100016.16;;;-0.93;70.92
84108;BME280;74203;50.730;1.626;2024-01-16T06:54:48;100004.41;;;-0.90;70.41
84108;BME280;74203;50.730;1.626;2024-01-16T06:56:57;100001.34;;;-0.86;69.19
84108;BME280;74203;50.730;1.626;2024-01-16T06:59:06;99998.53;;;-0.84;68.73
84108;BME280;74203;50.730;1.626;2024-01-16T07:01:14;99997.16;;;-0.88;69.25
84108;BME280;74203;50.730;1.626;2024-01-16T07:03:23;99999.53;;;-0.85;69.62
84108;BME280;74203;50.730;1.626;2024-01-16T07:05:32;99991.56;;;-0.85;69.52
84108;BME280;74203;50.730;1.626;2024-01-16T07:07:40;99996.56;;;-0.82;69.80
84108;BME280;74203;50.730;1.626;2024-01-16T07:09:49;99990.47;;;-0.92;69.94
84108;BME280;74203;50.730;1.626;2024-01-16T07:11:57;99994.13;;;-0.93;70.05
84108;BME280;74203;50.730;1.626;2024-01-16T07:14:06;99989.34;;;-0.90;69.90
84108;BME280;74203;50.730;1.626;2024-01-16T07:16:15;99986.28;;;-0.85;69.84
84108;BME280;74203;50.730;1.626;2024-01-16T07:18:24;99986.75;;;-0.99;70.66
84108;BME280;74203;50.730;1.626;2024-01-16T07:20:32;99990.75;;;-0.95;70.42
84108;BME280;74203;50.730;1.626;2024-01-16T07:22:42;99994.66;;;-0.90;70.43
84108;BME280;74203;50.730;1.626;2024-01-16T07:24:50;99985.03;;;-0.91;70.53
84108;BME280;74203;50.730;1.626;2024-01-16T07:26:59;99973.72;;;-0.83;69.90
84108;BME280;74203;50.730;1.626;2024-01-16T07:29:07;99988.34;;;-0.79;69.93
84108;BME280;74203;50.730;1.626;2024-01-16T07:31:16;99980.09;;;-0.76;69.90
84108;BME280;74203;50.730;1.626;2024-01-16T07:33:25;99984.63;;;-0.86;70.25
84108;BME280;74203;50.730;1.626;2024-01-16T07:35:33;99988.25;;;-0.87;70.00
84108;BME280;74203;50.730;1.626;2024-01-16T07:37:42;99994.91;;;-0.83;70.33
84108;BME280;74203;50.730;1.626;2024-01-16T07:39:50;99997.41;;;-0.72;69.99
84108;BME280;74203;50.730;1.626;2024-01-16T07:41:59;99997.41;;;-0.72;70.13
84108;BME280;74203;50.730;1.626;2024-01-16T07:44:08;100006.59;;;-0.66;69.87
84108;BME280;74203;50.730;1.626;2024-01-16T07:46:16;99997.34;;;-0.62;69.80
84108;BME280;74203;50.730;1.626;2024-01-16T07:48:25;100016.37;;;-0.67;68.68
84108;BME280;74203;50.730;1.626;2024-01-16T07:50:34;100009.50;;;-0.60;65.92
84108;BME280;74203;50.730;1.626;2024-01-16T07:52:42;99998.69;;;-0.48;66.06
84108;BME280;74203;50.730;1.626;2024-01-16T07:54:51;100004.72;;;-0.46;66.92
84108;BME280;74203;50.730;1.626;2024-01-16T07:56:59;99998.41;;;-0.45;66.86
84108;BME280;74203;50.730;1.626;2024-01-16T07:59:08;100003.56;;;-0.44;66.75
84108;BME280;74203;50.730;1.626;2024-01-16T08:01:17;100003.00;;;-0.38;65.67
84108;BME280;74203;50.730;1.626;2024-01-16T08:03:25;100002.69;;;-0.35;65.95
84108;BME280;74203;50.730;1.626;2024-01-16T08:05:34;100001.72;;;-0.34;66.37
84108;BME280;74203;50.730;1.626;2024-01-16T08:07:45;100001.97;;;-0.27;66.17
84108;BME280;74203;50.730;1.626;2024-01-16T08:09:53;100005.31;;;-0.25;66.09
84108;BME280;74203;50.730;1.626;2024-01-16T08:12:02;100005.94;;;-0.13;65.52
84108;BME280;74203;50.730;1.626;2024-01-16T08:14:11;100011.94;;;-0.11;66.08
84108;BME280;74203;50.730;1.626;2024-01-16T08:16:19;100006.47;;;-0.10;65.84
84108;BME280;74203;50.730;1.626;2024-01-16T08:18:28;100004.06;;;-0.03;65.24
84108;BME280;74203;50.730;1.626;2024-01-16T08:20:36;100002.06;;;-0.01;64.29
84108;BME280;74203;50.730;1.626;2024-01-16T08:22:45;100011.88;;;-0.02;64.13
84108;BME280;74203;50.730;1.626;2024-01-16T08:24:54;100008.22;;;-0.01;64.35
84108;BME280;74203;50.730;1.626;2024-01-16T08:27:03;99994.00;;;0.01;64.80
84108;BME280;74203;50.730;1.626;2024-01-16T08:29:11;99993.16;;;0.00;64.50
84108;BME280;74203;50.730;1.626;2024-01-16T08:31:22;99995.66;;;0.02;64.71
84108;BME280;74203;50.730;1.626;2024-01-16T08:33:31;99996.25;;;-0.05;64.45
84108;BME280;74203;50.730;1.626;2024-01-16T08:35:40;99994.19;;;-0.11;65.06
84108;BME280;74203;50.730;1.626;2024-01-16T08:37:49;99991.03;;;0.04;63.92
84108;BME280;74203;50.730;1.626;2024-01-16T08:39:58;99988.69;;;0.01;64.09
84108;BME280;74203;50.730;1.626;2024-01-16T08:42:07;99982.22;;;0.03;64.30
84108;BME280;74203;50.730;1.626;2024-01-16T08:44:16;99986.41;;;0.06;62.90
84108;BME280;74203;50.730;1.626;2024-01-16T08:46:24;99981.78;;;0.08;63.80
84108;BME280;74203;50.730;1.626;2024-01-16T08:48:33;99977.56;;;0.15;63.18
84108;BME280;74203;50.730;1.626;2024-01-16T08:50:42;99980.22;;;0.15;64.13
84108;BME280;74203;50.730;1.626;2024-01-16T08:52:50;99971.94;;;0.18;64.65
84108;BME280;74203;50.730;1.626;2024-01-16T08:54:59;99969.59;;;0.15;64.61
84108;BME280;74203;50.730;1.626;2024-01-16T08:57:08;99978.81;;;0.11;64.45
84108;BME280;74203;50.730;1.626;2024-01-16T08:59:16;99981.19;;;0.14;64.89
84108;BME280;74203;50.730;1.626;2024-01-16T09:01:25;99974.06;;;0.14;64.49
84108;BME280;74203;50.730;1.626;2024-01-16T09:03:34;99976.78;;;0.22;64.35
84108;BME280;74203;50.730;1.626;2024-01-16T09:05:43;99972.22;;;0.33;65.03
84108;BME280;74203;50.730;1.626;2024-01-16T09:07:51;99974.22;;;0.31;65.34
84108;BME280;74203;50.730;1.626;2024-01-16T09:10:00;99975.59;;;0.35;64.47
84108;BME280;74203;50.730;1.626;2024-01-16T09:12:09;99978.00;;;0.46;64.63
84108;BME280;74203;50.730;1.626;2024-01-16T09:14:18;99969.63;;;0.59;64.66
84108;BME280;74203;50.730;1.626;2024-01-16T09:16:26;99965.00;;;0.61;63.90
84108;BME280;74203;50.730;1.626;2024-01-16T09:18:35;99964.72;;;0.64;63.89
84108;BME280;74203;50.730;1.626;2024-01-16T09:20:44;99961.72;;;0.67;63.99
84108;BME280;74203;50.730;1.626;2024-01-16T09:22:53;99956.78;;;0.72;63.92
84108;BME280;74203;50.730;1.626;2024-01-16T09:25:02;99963.16;;;0.79;63.61
84108;BME280;74203;50.730;1.626;2024-01-16T09:27:11;99951.91;;;0.85;63.43
84108;BME280;74203;50.730;1.626;2024-01-16T09:29:19;99958.28;;;0.92;63.45
84108;BME280;74203;50.730;1.626;2024-01-16T09:31:28;99964.41;;;0.93;63.49
84108;BME280;74203;50.730;1.626;2024-01-16T09:33:37;99962.63;;;1.01;63.51
84108;BME280;74203;50.730;1.626;2024-01-16T09:35:45;99965.16;;;1.03;63.20
84108;BME280;74203;50.730;1.626;2024-01-16T09:37:54;99958.41;;;1.08;63.27
84108;BME280;74203;50.730;1.626;2024-01-16T09:40:03;99964.84;;;1.06;63.11
84108;BME280;74203;50.730;1.626;2024-01-16T09:42:12;99965.50;;;1.08;63.33
84108;BME280;74203;50.730;1.626;2024-01-16T09:44:21;99953.59;;;1.12;63.11
84108;BME280;74203;50.730;1.626;2024-01-16T09:46:30;99955.25;;;1.13;63.48
84108;BME280;74203;50.730;1.626;2024-01-16T09:48:39;99950.91;;;1.12;63.51
84108;BME280;74203;50.730;1.626;2024-01-16T09:50:48;99946.47;;;1.21;63.61
84108;BME280;74203;50.730;1.626;2024-01-16T09:52:57;99950.53;;;1.33;63.10
84108;BME280;74203;50.730;1.626;2024-01-16T09:55:06;99954.72;;;1.35;62.96
84108;BME280;74203;50.730;1.626;2024-01-16T09:57:16;99947.28;;;1.47;62.91
84108;BME280;74203;50.730;1.626;2024-01-16T09:59:27;99951.97;;;1.53;63.02
84108;BME280;74203;50.730;1.626;2024-01-16T10:01:37;99945.34;;;1.57;63.09
84108;BME280;74203;50.730;1.626;2024-01-16T10:03:47;99948.00;;;1.57;63.26
84108;BME280;74203;50.730;1.626;2024-01-16T10:05:56;99953.47;;;1.56;62.91
84108;BME280;74203;50.730;1.626;2024-01-16T10:08:05;99947.59;;;1.44;62.77
84108;BME280;74203;50.730;1.626;2024-01-16T10:10:14;99937.66;;;1.54;62.15
84108;BME280;74203;50.730;1.626;2024-01-16T10:12:23;99943.34;;;1.68;62.01
84108;BME280;74203;50.730;1.626;2024-01-16T10:14:32;99935.53;;;1.66;61.66
84108;BME280;74203;50.730;1.626;2024-01-16T10:17:01;99937.41;;;1.74;61.61
84108;BME280;74203;50.730;1.626;2024-01-16T10:19:09;99938.41;;;1.81;61.50
84108;BME280;74203;50.730;1.626;2024-01-16T10:21:25;99934.25;;;1.78;61.29
84108;BME280;74203;50.730;1.626;2024-01-16T10:23:35;99939.06;;;1.75;61.00
84108;BME280;74203;50.730;1.626;2024-01-16T10:25:44;99940.13;;;1.90;60.42
84108;BME280;74203;50.730;1.626;2024-01-16T10:28:05;99940.78;;;1.92;58.83
84108;BME280;74203;50.730;1.626;2024-01-16T10:30:15;99935.31;;;2.02;59.08
84108;BME280;74203;50.730;1.626;2024-01-16T10:32:34;99938.16;;;2.16;58.16
84108;BME280;74203;50.730;1.626;2024-01-16T10:34:43;99936.84;;;2.12;59.33
84108;BME280;74203;50.730;1.626;2024-01-16T10:36:58;99930.50;;;2.22;59.04
84108;BME280;74203;50.730;1.626;2024-01-16T10:39:08;99929.53;;;2.31;59.09
84108;BME280;74203;50.730;1.626;2024-01-16T10:41:18;99918.88;;;2.31;59.43
84108;BME280;74203;50.730;1.626;2024-01-16T10:43:26;99928.84;;;2.29;58.84
84108;BME280;74203;50.730;1.626;2024-01-16T10:45:36;99915.88;;;2.34;58.83
84108;BME280;74203;50.730;1.626;2024-01-16T10:47:44;99909.72;;;2.41;58.38
84108;BME280;74203;50.730;1.626;2024-01-16T10:49:53;99906.53;;;2.30;58.60
84108;BME280;74203;50.730;1.626;2024-01-16T10:52:02;99904.22;;;2.43;58.26
84108;BME280;74203;50.730;1.626;2024-01-16T10:54:15;99903.22;;;2.52;57.76
84108;BME280;74203;50.730;1.626;2024-01-16T10:56:24;99902.53;;;2.50;57.54
84108;BME280;74203;50.730;1.626;2024-01-16T10:58:35;99900.56;;;2.44;57.59
84108;BME280;74203;50.730;1.626;2024-01-16T11:00:46;99900.88;;;2.49;57.09
84108;BME280;74203;50.730;1.626;2024-01-16T11:03:04;99895.72;;;2.56;56.58
84108;BME280;74203;50.730;1.626;2024-01-16T11:05:15;99905.53;;;2.55;56.10
84108;BME280;74203;50.730;1.626;2024-01-16T11:07:26;99897.06;;;2.60;57.18
84108;BME280;74203;50.730;1.626;2024-01-16T11:09:37;99888.25;;;2.51;58.90
84108;BME280;74203;50.730;1.626;2024-01-16T11:11:49;99891.56;;;2.53;59.52
84108;BME280;74203;50.730;1.626;2024-01-16T11:13:59;99884.56;;;2.60;59.13
84108;BME280;74203;50.730;1.626;2024-01-16T11:16:08;99879.87;;;2.62;59.22
84108;BME280;74203;50.730;1.626;2024-01-16T11:18:19;99874.88;;;2.67;59.06